createdAt,value
2019-02-10T00:02:08.199Z,77.04
2019-02-10T00:04:37.004Z,77.03
2019-02-10T00:07:05.816Z,77.24
2019-02-10T00:09:34.647Z,77.17
2019-02-10T00:12:03.436Z,77.47
2019-02-10T00:14:32.311Z,77.26
2019-02-10T00:17:01.691Z,77.56
2019-02-10T00:19:30.546Z,77.55
2019-02-10T00:21:59.334Z,77.23
2019-02-10T00:24:28.135Z,77.34
2019-02-10T00:26:56.963Z,77.39
2019-02-10T00:29:25.752Z,77.60
2019-02-10T00:31:54.555Z,77.84
2019-02-10T00:34:23.371Z,77.66
2019-02-10T00:36:52.545Z,77.70
2019-02-10T00:39:22.550Z,77.53
2019-02-10T00:41:52.069Z,77.92
2019-02-10T00:44:21.957Z,77.69
2019-02-10T00:46:50.699Z,77.67
2019-02-10T00:49:20.091Z,77.72
2019-02-10T00:51:49.426Z,78.08
2019-02-10T00:54:18.193Z,77.97
2019-02-10T00:56:46.990Z,77.84
2019-02-10T00:59:17.426Z,78.08
2019-02-10T01:01:46.286Z,77.94
2019-02-10T01:04:15.122Z,78.07
2019-02-10T01:06:43.915Z,77.86
2019-02-10T01:09:12.819Z,78.46
2019-02-10T01:11:41.688Z,78.30
2019-02-10T01:14:10.475Z,78.83
2019-02-10T01:16:39.241Z,78.62
2019-02-10T01:19:09.454Z,78.31
2019-02-10T01:21:40.844Z,78.67
2019-02-10T01:24:09.667Z,78.83
2019-02-10T01:26:38.441Z,78.96
2019-02-10T01:29:07.267Z,79.09
2019-02-10T01:31:36.030Z,79.37
2019-02-10T01:34:04.847Z,79.39
2019-02-10T01:36:33.720Z,79.44
2019-02-10T01:39:02.500Z,79.79
2019-02-10T01:41:31.916Z,79.55
2019-02-10T01:44:01.197Z,79.78
2019-02-10T01:46:29.998Z,80.25
2019-02-10T01:48:58.936Z,80.07
2019-02-10T01:51:28.228Z,80.51
2019-02-10T01:53:57.048Z,80.33
2019-02-10T01:56:25.847Z,80.82
2019-02-10T01:58:54.639Z,80.83
2019-02-10T02:01:23.411Z,81.06
2019-02-10T02:03:52.174Z,81.10
2019-02-10T02:06:21.005Z,81.53
2019-02-10T02:08:50.046Z,81.96
2019-02-10T02:11:18.843Z,81.73
2019-02-10T02:13:47.622Z,82.17
2019-02-10T02:16:16.748Z,82.60
2019-02-10T02:18:45.533Z,82.89
2019-02-10T02:21:14.367Z,82.89
2019-02-10T02:23:43.258Z,82.69
2019-02-10T02:26:12.264Z,82.90
2019-02-10T02:28:41.014Z,83.09
2019-02-10T02:31:09.893Z,83.26
2019-02-10T02:33:40.073Z,83.43
2019-02-10T02:36:09.795Z,83.62
2019-02-10T02:38:38.866Z,83.96
2019-02-10T02:41:07.734Z,84.12
2019-02-10T02:43:37.286Z,84.31
2019-02-10T02:46:06.123Z,84.89
2019-02-10T02:48:35.544Z,84.82
2019-02-10T02:51:04.313Z,85.20
2019-02-10T02:53:33.128Z,85.53
2019-02-10T02:56:01.885Z,85.25
2019-02-10T02:58:31.787Z,85.43
2019-02-10T03:01:00.535Z,85.80
2019-02-10T03:03:29.310Z,85.85
2019-02-10T03:05:58.110Z,86.61
2019-02-10T03:08:26.907Z,86.42
2019-02-10T03:10:56.925Z,86.57
2019-02-10T03:13:25.814Z,86.88
2019-02-10T03:15:54.653Z,86.50
2019-02-10T03:18:23.478Z,87.25
2019-02-10T03:20:52.261Z,86.96
2019-02-10T03:23:21.114Z,86.89
2019-02-10T03:25:49.957Z,87.06
2019-02-10T03:28:18.794Z,87.30
2019-02-10T03:30:47.754Z,87.00
2019-02-10T03:33:20.220Z,87.11
2019-02-10T03:35:49.135Z,87.43
2019-02-10T03:38:18.511Z,87.56
2019-02-10T03:40:47.400Z,87.96
2019-02-10T03:43:17.154Z,87.90
2019-02-10T03:45:46.070Z,87.88
2019-02-10T03:48:14.914Z,87.66
2019-02-10T03:50:43.776Z,87.71
2019-02-10T03:53:13.096Z,87.65
2019-02-10T03:55:41.957Z,87.75
2019-02-10T03:58:10.745Z,87.52
2019-02-10T04:00:40.067Z,87.56
2019-02-10T04:03:08.900Z,87.63
2019-02-10T04:05:37.706Z,88.09
2019-02-10T04:08:06.542Z,88.63
2019-02-10T04:10:35.355Z,88.93
2019-02-10T04:13:04.789Z,89.18
2019-02-10T04:15:33.642Z,89.46
2019-02-10T04:18:02.514Z,89.39
2019-02-10T04:20:31.308Z,90.34
2019-02-10T04:23:00.243Z,89.15
2019-02-10T04:25:29.090Z,90.03
2019-02-10T04:27:57.872Z,89.69
2019-02-10T04:30:26.743Z,89.21
2019-02-10T04:32:55.596Z,89.49
2019-02-10T04:35:24.415Z,90.15
2019-02-10T04:37:53.224Z,89.83
2019-02-10T04:40:22.056Z,90.14
2019-02-10T04:42:51.294Z,89.83
2019-02-10T04:45:20.074Z,89.95
2019-02-10T04:47:49.180Z,90.75
2019-02-10T04:50:18.561Z,90.97
2019-02-10T04:52:47.428Z,90.42
2019-02-10T04:55:16.870Z,91.29
2019-02-10T04:57:45.728Z,91.06
2019-02-10T05:00:14.688Z,90.84
2019-02-10T05:02:43.590Z,91.19
2019-02-10T05:05:12.399Z,91.32
2019-02-10T05:07:41.207Z,91.16
2019-02-10T05:10:09.990Z,91.08
2019-02-10T05:12:38.808Z,91.00
2019-02-10T05:15:07.632Z,90.84
2019-02-10T05:17:36.392Z,91.04
2019-02-10T05:20:05.659Z,91.25
2019-02-10T05:22:34.576Z,91.67
2019-02-10T05:25:03.412Z,91.29
2019-02-10T05:27:32.275Z,91.80
2019-02-10T05:30:01.217Z,91.83
2019-02-10T05:32:30.754Z,91.58
2019-02-10T05:34:59.532Z,91.60
2019-02-10T05:37:28.306Z,92.27
2019-02-10T05:39:57.219Z,91.84
2019-02-10T05:42:26.006Z,91.36
2019-02-10T05:44:54.938Z,91.90
2019-02-10T05:47:23.771Z,91.66
2019-02-10T05:49:52.594Z,91.66
2019-02-10T05:52:21.518Z,92.46
2019-02-10T05:54:51.291Z,92.64
2019-02-10T05:57:20.179Z,92.92
2019-02-10T05:59:49.917Z,92.99
2019-02-10T06:02:24.447Z,92.47
2019-02-10T06:04:53.291Z,92.48
2019-02-10T06:07:22.080Z,92.64
2019-02-10T06:09:50.935Z,92.69
2019-02-10T06:12:19.716Z,92.55
2019-02-10T06:14:48.553Z,92.73
2019-02-10T06:17:17.429Z,92.52
2019-02-10T06:19:46.235Z,92.89
2019-02-10T06:22:15.071Z,92.67
2019-02-10T06:24:43.838Z,92.97
2019-02-10T06:27:13.962Z,92.88
2019-02-10T06:29:42.807Z,93.63
2019-02-10T06:32:11.692Z,93.89
2019-02-10T06:34:41.219Z,92.90
2019-02-10T06:37:10.131Z,93.40
2019-02-10T06:39:38.927Z,93.20
2019-02-10T06:42:07.772Z,93.48
2019-02-10T06:44:36.587Z,93.83
2019-02-10T06:47:05.468Z,93.92
2019-02-10T06:49:34.328Z,93.90
2019-02-10T06:52:03.154Z,93.74
2019-02-10T06:54:31.921Z,93.55
2019-02-10T06:57:00.690Z,93.66
2019-02-10T06:59:34.842Z,93.68
2019-02-10T07:02:08.989Z,93.21
2019-02-10T07:04:37.860Z,93.38
2019-02-10T07:07:06.649Z,93.35
2019-02-10T07:09:35.417Z,93.05
2019-02-10T07:12:17.366Z,93.37
2019-02-10T07:14:46.168Z,93.36
2019-02-10T07:17:29.141Z,93.26
2019-02-10T07:20:07.965Z,93.51
2019-02-10T07:23:01.826Z,93.69
2019-02-10T07:25:48.545Z,93.17
2019-02-10T07:28:29.202Z,93.26
2019-02-10T07:30:58.035Z,93.46
2019-02-10T07:35:42.282Z,93.35
2019-02-10T07:38:17.830Z,93.06
2019-02-10T07:41:00.739Z,93.54
2019-02-10T07:43:51.973Z,93.32
2019-02-10T07:46:32.002Z,93.39
2019-02-10T07:49:12.731Z,93.71
2019-02-10T07:52:58.288Z,93.84
2019-02-10T07:55:38.206Z,93.06
2019-02-10T07:58:27.848Z,93.13
2019-02-10T08:01:12.439Z,93.42
2019-02-10T08:03:54.188Z,93.57
2019-02-10T08:06:31.166Z,93.50
2019-02-10T08:09:12.159Z,93.52
2019-02-10T08:11:54.399Z,93.87
2019-02-10T08:14:36.702Z,93.98
2019-02-10T08:17:20.502Z,93.92
2019-02-10T08:21:22.203Z,93.94
2019-02-10T08:24:03.820Z,93.77
2019-02-10T08:26:41.582Z,93.84
2019-02-10T08:29:39.785Z,94.00
2019-02-10T08:32:24.801Z,93.52
2019-02-10T08:36:06.559Z,93.66
2019-02-10T08:40:55.542Z,93.69
2019-02-10T08:44:35.079Z,93.60
2019-02-10T08:47:33.629Z,93.88
2019-02-10T08:52:16.160Z,93.75
2019-02-10T08:54:45.027Z,93.65
2019-02-10T08:57:14.035Z,94.10
2019-02-10T08:59:42.903Z,94.06
2019-02-10T09:02:12.752Z,94.13
2019-02-10T09:04:41.571Z,94.04
2019-02-10T09:07:10.435Z,94.07
2019-02-10T09:09:39.298Z,94.09
2019-02-10T09:12:08.655Z,94.27
2019-02-10T09:14:37.464Z,94.15
2019-02-10T09:17:06.718Z,94.23
2019-02-10T09:19:36.331Z,93.93
2019-02-10T09:22:05.119Z,93.98
2019-02-10T09:24:34.518Z,93.94
2019-02-10T09:27:07.122Z,93.96
2019-02-10T09:29:36.451Z,93.51
2019-02-10T09:32:05.246Z,92.82
2019-02-10T09:34:34.073Z,92.62
2019-02-10T09:37:03.614Z,92.35
2019-02-10T09:39:32.471Z,92.71
2019-02-10T09:42:01.961Z,91.98
2019-02-10T09:44:31.237Z,91.66
2019-02-10T09:47:00.108Z,91.39
2019-02-10T09:49:28.912Z,91.06
2019-02-10T09:51:57.742Z,90.37
2019-02-10T09:54:28.458Z,89.97
2019-02-10T09:56:57.207Z,90.17
2019-02-10T09:59:26.069Z,89.30
2019-02-10T10:01:54.847Z,90.04
2019-02-10T10:04:23.629Z,89.59
2019-02-10T10:06:52.417Z,89.11
2019-02-10T10:09:21.218Z,89.13
2019-02-10T10:11:50.047Z,88.64
2019-02-10T10:14:19.780Z,89.21
2019-02-10T10:16:47.670Z,88.77
2019-02-10T10:19:16.600Z,88.50
2019-02-10T10:21:45.357Z,88.68
2019-02-10T10:24:14.128Z,88.69
2019-02-10T10:26:42.903Z,88.72
2019-02-10T10:29:11.678Z,88.59
2019-02-10T10:31:40.443Z,88.49
2019-02-10T10:34:09.210Z,88.24
2019-02-10T10:36:37.995Z,87.93
2019-02-10T10:39:06.910Z,87.03
2019-02-10T10:41:35.708Z,86.80
2019-02-10T10:44:04.506Z,86.68
2019-02-10T10:46:34.044Z,85.72
2019-02-10T10:49:02.925Z,85.69
2019-02-10T10:51:31.723Z,86.31
2019-02-10T10:54:00.630Z,85.85
2019-02-10T10:56:29.521Z,85.78
2019-02-10T10:58:59.128Z,86.02
2019-02-10T11:01:28.565Z,85.73
2019-02-10T11:03:57.443Z,85.95
2019-02-10T11:06:26.276Z,85.66
2019-02-10T11:08:55.786Z,85.19
2019-02-10T11:11:24.564Z,84.92
2019-02-10T11:13:53.382Z,84.91
2019-02-10T11:16:22.259Z,84.40
2019-02-10T11:18:51.354Z,84.25
2019-02-10T11:21:21.504Z,84.07
2019-02-10T11:23:50.401Z,84.07
2019-02-10T11:26:19.227Z,83.39
2019-02-10T11:28:48.902Z,83.81
2019-02-10T11:31:17.734Z,83.89
2019-02-10T11:33:46.541Z,82.98
2019-02-10T11:36:23.131Z,83.71
2019-02-10T11:38:51.955Z,83.12
2019-02-10T11:41:20.785Z,83.07
2019-02-10T11:43:49.575Z,81.92
2019-02-10T11:46:19.982Z,82.48
2019-02-10T11:48:48.802Z,82.24
2019-02-10T11:51:17.639Z,82.73
2019-02-10T11:53:46.882Z,81.45
2019-02-10T11:56:16.361Z,82.09
2019-02-10T11:58:45.136Z,82.27
2019-02-10T12:01:14.195Z,82.06
2019-02-10T12:03:46.623Z,82.52
2019-02-10T12:06:15.745Z,82.55
2019-02-10T12:08:47.612Z,82.42
2019-02-10T12:11:16.425Z,82.85
2019-02-10T12:13:45.357Z,82.80
2019-02-10T12:16:14.155Z,82.79
2019-02-10T12:18:44.205Z,82.83
2019-02-10T12:21:14.406Z,82.49
2019-02-10T12:23:45.046Z,82.43
2019-02-10T12:26:15.569Z,83.00
2019-02-10T12:28:45.698Z,82.97
2019-02-10T12:31:14.498Z,82.77
2019-02-10T12:33:43.274Z,82.16
2019-02-10T12:36:12.104Z,82.21
2019-02-10T12:38:41.043Z,82.46
2019-02-10T12:41:10.755Z,82.28
2019-02-10T12:43:39.566Z,82.42
2019-02-10T12:46:09.044Z,82.61
2019-02-10T12:48:38.560Z,82.87
2019-02-10T12:51:07.336Z,82.83
2019-02-10T12:53:36.540Z,83.29
2019-02-10T12:56:05.334Z,83.58
2019-02-10T12:58:34.181Z,83.14
2019-02-10T13:01:03.080Z,83.50
2019-02-10T13:03:35.890Z,83.41
2019-02-10T13:06:04.667Z,83.88
2019-02-10T13:08:35.576Z,83.77
2019-02-10T13:11:04.327Z,83.88
2019-02-10T13:13:33.114Z,83.25
2019-02-10T13:16:01.996Z,83.11
2019-02-10T13:18:30.880Z,83.16
2019-02-10T13:21:00.255Z,83.74
2019-02-10T13:23:29.047Z,83.54
2019-02-10T13:25:57.946Z,83.61
2019-02-10T13:28:27.915Z,83.15
2019-02-10T13:30:55.613Z,82.88
2019-02-10T13:33:25.120Z,82.64
2019-02-10T13:35:57.781Z,83.34
2019-02-10T13:38:27.309Z,83.32
2019-02-10T13:40:56.126Z,83.12
2019-02-10T13:43:24.903Z,82.85
2019-02-10T13:45:54.599Z,82.66
2019-02-10T13:48:23.572Z,83.08
2019-02-10T13:50:52.330Z,83.40
2019-02-10T13:53:21.300Z,83.39
2019-02-10T13:55:50.162Z,83.40
2019-02-10T13:58:19.101Z,82.84
2019-02-10T14:00:47.869Z,82.88
2019-02-10T14:03:17.244Z,82.84
2019-02-10T14:05:46.011Z,82.86
2019-02-10T14:08:14.840Z,83.10
2019-02-10T14:10:43.657Z,82.77
2019-02-10T14:13:12.419Z,82.90
2019-02-10T14:15:41.267Z,83.24
2019-02-10T14:18:10.040Z,83.07
2019-02-10T14:20:39.147Z,83.00
2019-02-10T14:23:07.957Z,82.83
2019-02-10T14:25:36.745Z,83.11
2019-02-10T14:28:05.638Z,83.57
2019-02-10T14:30:34.751Z,83.87
2019-02-10T14:33:03.542Z,84.27
2019-02-10T14:35:32.434Z,84.17
2019-02-10T14:38:03.429Z,84.61
2019-02-10T14:40:33.940Z,84.39
2019-02-10T14:43:01.663Z,84.47
2019-02-10T14:45:30.456Z,84.87
2019-02-10T14:47:59.238Z,84.39
2019-02-10T14:50:29.082Z,84.47
2019-02-10T14:52:56.967Z,84.81
2019-02-10T14:55:25.851Z,84.62
2019-02-10T14:57:55.922Z,84.84
2019-02-10T15:00:24.780Z,84.64
2019-02-10T15:02:53.568Z,84.99
2019-02-10T15:05:22.372Z,84.57
2019-02-10T15:07:51.234Z,84.98
2019-02-10T15:10:21.127Z,85.05
2019-02-10T15:12:49.928Z,85.00
2019-02-10T15:15:18.727Z,84.91
2019-02-10T15:17:48.256Z,85.03
2019-02-10T15:20:17.709Z,85.07
2019-02-10T15:22:46.508Z,85.01
2019-02-10T15:25:15.341Z,85.08
2019-02-10T15:27:45.467Z,85.17
2019-02-10T15:30:16.392Z,85.73
2019-02-10T15:32:46.617Z,85.21
2019-02-10T15:35:15.374Z,84.88
2019-02-10T15:37:44.180Z,85.12
2019-02-10T15:40:13.002Z,85.12
2019-02-10T15:42:43.119Z,85.02
2019-02-10T15:45:12.847Z,84.58
2019-02-10T15:47:42.231Z,84.94
2019-02-10T15:50:11.790Z,84.77
2019-02-10T15:52:40.615Z,84.54
2019-02-10T15:55:10.130Z,84.60
2019-02-10T15:57:38.955Z,84.22
2019-02-10T16:00:11.031Z,84.01
2019-02-10T16:02:39.820Z,83.62
2019-02-10T16:05:08.887Z,83.63
2019-02-10T16:07:37.847Z,83.58
2019-02-10T16:10:09.091Z,83.99
2019-02-10T16:12:39.731Z,83.60
2019-02-10T16:15:09.148Z,83.48
2019-02-10T16:17:38.633Z,83.73
2019-02-10T16:20:09.082Z,83.55
2019-02-10T16:22:38.041Z,83.58
2019-02-10T16:25:06.855Z,84.04
2019-02-10T16:27:36.376Z,84.33
2019-02-10T16:30:06.622Z,83.85
2019-02-10T16:32:35.456Z,83.87
2019-02-10T16:35:04.337Z,84.05
2019-02-10T16:37:33.816Z,84.15
2019-02-10T16:40:02.711Z,84.67
2019-02-10T16:42:31.536Z,84.27
2019-02-10T16:45:00.364Z,84.40
2019-02-10T16:47:29.216Z,84.73
2019-02-10T16:49:57.999Z,84.92
2019-02-10T16:52:26.762Z,84.54
2019-02-10T16:54:55.573Z,84.66
2019-02-10T16:57:24.381Z,85.14
2019-02-10T16:59:53.198Z,85.08
2019-02-10T17:02:22.052Z,85.17
2019-02-10T17:04:50.843Z,84.96
2019-02-10T17:07:20.341Z,85.48
2019-02-10T17:09:49.194Z,85.78
2019-02-10T17:12:18.116Z,85.88
2019-02-10T17:14:47.465Z,86.14
2019-02-10T17:17:16.783Z,85.72
2019-02-10T17:19:45.554Z,85.46
2019-02-10T17:22:14.406Z,85.99
2019-02-10T17:24:43.955Z,86.64
2019-02-10T17:27:13.718Z,85.71
2019-02-10T17:29:43.332Z,86.47
2019-02-10T17:32:12.634Z,85.99
2019-02-10T17:34:42.096Z,86.49
2019-02-10T17:37:10.882Z,86.25
2019-02-10T17:39:40.104Z,86.89
2019-02-10T17:42:08.887Z,86.60
2019-02-10T17:44:37.659Z,87.10
2019-02-10T17:47:06.527Z,86.52
2019-02-10T17:49:35.356Z,85.89
2019-02-10T17:52:04.218Z,86.12
2019-02-10T17:54:33.096Z,86.46
2019-02-10T17:57:01.876Z,86.15
2019-02-10T17:59:30.743Z,86.13
2019-02-10T18:01:59.583Z,86.01
2019-02-10T18:04:28.447Z,86.06
2019-02-10T18:06:57.231Z,86.21
2019-02-10T18:09:26.363Z,86.21
2019-02-10T18:11:56.614Z,86.47
2019-02-10T18:15:32.552Z,86.84
2019-02-10T18:18:08.622Z,86.18
2019-02-10T18:20:41.612Z,86.11
2019-02-10T18:23:15.652Z,85.88
2019-02-10T18:26:21.256Z,86.46
2019-02-10T18:28:55.085Z,86.54
2019-02-10T18:31:28.174Z,86.33
2019-02-10T18:34:11.154Z,86.34
2019-02-10T18:36:49.215Z,86.46
2019-02-10T18:39:25.240Z,86.55
2019-02-10T18:42:00.165Z,86.40
2019-02-10T18:44:33.718Z,87.22
2019-02-10T18:47:07.754Z,86.88
2019-02-10T18:49:41.731Z,86.93
2019-02-10T18:54:18.683Z,86.77
2019-02-10T18:56:52.610Z,86.44
2019-02-10T19:00:29.392Z,86.46
2019-02-10T19:03:03.147Z,87.21
2019-02-10T19:05:37.190Z,87.20
2019-02-10T19:08:12.301Z,87.38
2019-02-10T19:10:52.168Z,88.01
2019-02-10T19:13:26.134Z,87.81
2019-02-10T19:18:09.416Z,87.52
2019-02-10T19:20:44.393Z,88.33
2019-02-10T19:24:17.058Z,88.42
2019-02-10T19:26:58.027Z,88.33
2019-02-10T19:29:37.123Z,88.78
2019-02-10T19:32:11.240Z,88.68
2019-02-10T19:34:47.128Z,88.66
2019-02-10T19:37:21.172Z,88.15
2019-02-10T19:39:55.072Z,88.11
2019-02-10T19:42:31.043Z,87.99
2019-02-10T19:45:10.177Z,88.21
2019-02-10T19:47:44.445Z,87.64
2019-02-10T19:50:17.379Z,88.17
2019-02-10T19:53:27.797Z,87.83
2019-02-10T19:56:01.823Z,88.13
2019-02-10T19:58:35.815Z,87.94
2019-02-10T20:01:08.913Z,87.39
2019-02-10T20:03:43.798Z,88.32
2019-02-10T20:06:20.826Z,88.50
2019-02-10T20:08:56.783Z,88.07
2019-02-10T20:11:35.711Z,87.70
2019-02-10T20:14:10.972Z,87.75
2019-02-10T20:16:46.843Z,88.32
2019-02-10T20:19:36.046Z,88.03
2019-02-10T20:22:10.137Z,88.83
2019-02-10T20:25:14.567Z,88.45
2019-02-10T20:27:56.656Z,88.31
2019-02-10T20:30:29.659Z,88.78
2019-02-10T20:33:02.627Z,89.19
2019-02-10T20:35:36.746Z,89.18
2019-02-10T20:38:45.171Z,89.38
2019-02-10T20:41:19.143Z,89.35
2019-02-10T20:44:51.965Z,89.25
2019-02-10T20:47:26.160Z,89.99
2019-02-10T20:50:02.027Z,89.00
2019-02-10T20:52:37.020Z,88.99
2019-02-10T20:55:16.127Z,89.04
2019-02-10T20:57:49.092Z,88.57
2019-02-10T21:00:28.149Z,89.38
2019-02-10T21:03:02.059Z,88.34
2019-02-10T21:05:36.253Z,88.75
2019-02-10T21:08:11.055Z,88.73
2019-02-10T21:10:46.158Z,88.76
2019-02-10T21:13:38.447Z,88.69
2019-02-10T21:17:12.282Z,89.17
2019-02-10T21:19:45.294Z,88.51
2019-02-10T21:22:19.288Z,88.98
2019-02-10T21:24:55.238Z,88.81
2019-02-10T21:27:44.732Z,89.56
2019-02-10T21:31:16.896Z,89.74
2019-02-10T21:33:58.951Z,89.43
2019-02-10T21:36:33.940Z,89.45
2019-02-10T21:39:09.972Z,90.02
2019-02-10T21:41:52.950Z,89.93
2019-02-10T21:44:29.883Z,90.10
2019-02-10T21:47:03.607Z,89.92
2019-02-10T21:49:32.894Z,89.29
2019-02-10T21:52:01.672Z,89.31
2019-02-10T21:54:30.447Z,90.28
2019-02-10T21:56:59.276Z,89.22
2019-02-10T21:59:29.331Z,89.33
2019-02-10T22:01:58.186Z,89.83
2019-02-10T22:04:27.053Z,89.68
2019-02-10T22:06:56.491Z,89.71
2019-02-10T22:09:25.298Z,89.93
2019-02-10T22:11:54.092Z,90.09
2019-02-10T22:14:22.874Z,89.81
2019-02-10T22:16:51.662Z,90.23
2019-02-10T22:19:20.435Z,89.97
2019-02-10T22:21:49.226Z,89.45
2019-02-10T22:24:18.886Z,89.64
2019-02-10T22:26:47.667Z,89.17
2019-02-10T22:29:16.503Z,88.38
2019-02-10T22:31:45.299Z,89.00
2019-02-10T22:34:14.118Z,89.40
2019-02-10T22:36:42.941Z,88.84
2019-02-10T22:39:11.765Z,88.88
2019-02-10T22:41:40.559Z,88.89
2019-02-10T22:44:09.340Z,88.87
2019-02-10T22:46:38.137Z,89.23
2019-02-10T22:49:07.399Z,89.51
2019-02-10T22:51:36.162Z,89.80
2019-02-10T22:54:05.030Z,89.77
2019-02-10T22:56:33.813Z,89.65
2019-02-10T22:59:02.601Z,89.34
2019-02-10T23:01:31.362Z,89.46
2019-02-10T23:04:00.279Z,90.09
2019-02-10T23:06:29.006Z,89.78
2019-02-10T23:08:57.788Z,90.71
2019-02-10T23:11:26.683Z,90.10
2019-02-10T23:13:55.475Z,90.36
2019-02-10T23:16:24.260Z,90.34
2019-02-10T23:18:53.096Z,90.36
2019-02-10T23:21:21.986Z,90.16
2019-02-10T23:23:50.850Z,90.21
2019-02-10T23:26:20.107Z,90.60
2019-02-10T23:28:48.911Z,90.34
2019-02-10T23:31:19.514Z,90.62
2019-02-10T23:33:48.524Z,91.19
2019-02-10T23:36:17.303Z,90.61
2019-02-10T23:38:46.140Z,90.59
2019-02-10T23:41:15.040Z,90.29
2019-02-10T23:43:44.315Z,91.14
2019-02-10T23:46:13.155Z,90.59
2019-02-10T23:48:42.043Z,90.37
2019-02-10T23:51:13.338Z,90.55
2019-02-10T23:53:42.188Z,90.78
2019-02-10T23:56:11.126Z,90.05
2019-02-10T23:58:39.923Z,90.36
